首页
METAR-TAF:

METAR-TAF

机场 :

迪比克, 艾奥瓦州, 美国

纬度: 42-23-52N, 经度: 090-42-13W, 海拔: 328米

当前天气观测

该预报发布于47分钟前的05:53 UTC
风速15节,风向南转南东,有时为22节阵风
温度 24°C
湿度 78%
气压 1006 hPa
能見度: 16.1公里
天空无云

METAR: KDBQ 250553Z AUTO 16015G22KT 10SM CLR 24/20 A2971 RMK AO2 SLP052 T02440200 10283 20244 403000172 58030

时间: 01:40 (06:40 UTC)

预报

该预报发布于1小时和13分钟前的05:27 UTC
预报有效从25日的 06点(UTC)到 26日的 06点(UTC)
风速12节,风向,有时为20节阵风
能見度: 10公里
散云层高于6000英尺
从 25日的 0700点(UTC)
风速14节,风向南转西南,有时为23节阵风
能見度: 10公里
多云层高于25000英尺
从 25日的 1600点(UTC)
风速10节,风向西
能見度: 10公里
多云层高于25000英尺
几率 30%
从 25日的 23点(UTC)到 26日的 02点(UTC)
能見度: 8.0公里
多云层高于4000英尺, 积雨云.
雷暴, 小雨
从 26日的 0200点(UTC)
风速5节,风向西
能見度: 10公里
多云层高于25000英尺

TAF: KDBQ 250527Z 2506/2606 17012G20KT P6SM SCT060 FM250700 21014G23KT P6SM BKN250 WS020/22040KT FM251600 27010KT P6SM BKN250 PROB30 2523/2602 5SM -TSRA BKN040CB FM260200 27005KT P6SM BKN250

超过4000个机场的气象观测和天气预报(METAR&TAF报告)。

可查询的气象台以黄色和红色小点在地图上表示。

将鼠标移到小点上方,可查看气象台名称。

然后点击查看天气观测和预报。

如需切换地图:点击带黑十字的绿色按钮放大地图;点击带横线的绿色按钮缩小地图;或者点击绿色箭头查看邻近地区的地图。


METAR-TAF: